sensor_id;sensor_type;location;lat;lon;timestamp;pressure;altitude;pressure_sealevel;temperature;humidity
8069;BME280;4077;43.702;24.896;2023-02-11T00:00:29;101426.09;;;-6.59;100.00
8069;BME280;4077;43.702;24.896;2023-02-11T00:02:55;101429.38;;;-6.67;100.00
8069;BME280;4077;43.702;24.896;2023-02-11T00:05:20;101417.03;;;-6.73;100.00
8069;BME280;4077;43.702;24.896;2023-02-11T00:07:46;101422.25;;;-6.71;100.00
8069;BME280;4077;43.702;24.896;2023-02-11T00:10:11;101421.16;;;-6.73;100.00
8069;BME280;4077;43.702;24.896;2023-02-11T00:12:37;101417.97;;;-6.79;100.00
8069;BME280;4077;43.702;24.896;2023-02-11T00:15:04;101413.47;;;-6.75;100.00
8069;BME280;4077;43.702;24.896;2023-02-11T00:17:31;101416.44;;;-6.63;100.00
8069;BME280;4077;43.702;24.896;2023-02-11T00:19:56;101411.44;;;-6.63;100.00
8069;BME280;4077;43.702;24.896;2023-02-11T00:22:22;101403.38;;;-6.68;100.00
8069;BME280;4077;43.702;24.896;2023-02-11T00:24:47;101406.41;;;-6.63;100.00
8069;BME280;4077;43.702;24.896;2023-02-11T00:27:13;101381.25;;;-6.79;100.00
8069;BME280;4077;43.702;24.896;2023-02-11T00:29:38;101399.66;;;-6.48;100.00
8069;BME280;4077;43.702;24.896;2023-02-11T00:32:05;101395.13;;;-6.44;100.00
8069;BME280;4077;43.702;24.896;2023-02-11T00:34:31;101406.75;;;-6.37;100.00
8069;BME280;4077;43.702;24.896;2023-02-11T00:36:57;101402.63;;;-6.37;100.00
8069;BME280;4077;43.702;24.896;2023-02-11T00:39:23;101407.06;;;-6.34;100.00
8069;BME280;4077;43.702;24.896;2023-02-11T00:41:48;101394.00;;;-6.39;100.00
8069;BME280;4077;43.702;24.896;2023-02-11T00:44:14;101401.47;;;-6.31;100.00
8069;BME280;4077;43.702;24.896;2023-02-11T00:46:39;101398.78;;;-6.33;100.00
8069;BME280;4077;43.702;24.896;2023-02-11T00:49:04;101392.78;;;-6.42;100.00
8069;BME280;4077;43.702;24.896;2023-02-11T00:51:30;101381.75;;;-6.51;100.00
8069;BME280;4077;43.702;24.896;2023-02-11T00:53:56;101386.19;;;-6.49;100.00
8069;BME280;4077;43.702;24.896;2023-02-11T00:56:21;101396.81;;;-6.51;100.00
8069;BME280;4077;43.702;24.896;2023-02-11T00:58:47;101392.78;;;-6.42;100.00
8069;BME280;4077;43.702;24.896;2023-02-11T01:01:12;101404.16;;;-6.30;100.00
8069;BME280;4077;43.702;24.896;2023-02-11T01:03:38;101402.25;;;-6.17;100.00
8069;BME280;4077;43.702;24.896;2023-02-11T01:06:06;101388.97;;;-6.16;100.00
8069;BME280;4077;43.702;24.896;2023-02-11T01:08:31;101393.97;;;-6.16;100.00
8069;BME280;4077;43.702;24.896;2023-02-11T01:10:59;101408.25;;;-6.08;100.00
8069;BME280;4077;43.702;24.896;2023-02-11T01:13:26;101418.09;;;-6.25;100.00
8069;BME280;4077;43.702;24.896;2023-02-11T01:15:53;101413.06;;;-6.25;100.00
8069;BME280;4077;43.702;24.896;2023-02-11T01:18:18;101405.22;;;-6.28;100.00
8069;BME280;4077;43.702;24.896;2023-02-11T01:20:44;101400.25;;;-6.35;100.00
8069;BME280;4077;43.702;24.896;2023-02-11T01:23:09;101395.28;;;-6.42;100.00
8069;BME280;4077;43.702;24.896;2023-02-11T01:25:35;101396.34;;;-6.40;100.00
8069;BME280;4077;43.702;24.896;2023-02-11T01:28:00;101399.16;;;-6.30;100.00
8069;BME280;4077;43.702;24.896;2023-02-11T01:30:26;101400.13;;;-6.21;100.00
8069;BME280;4077;43.702;24.896;2023-02-11T01:32:51;101398.78;;;-6.33;100.00
8069;BME280;4077;43.702;24.896;2023-02-11T01:35:17;101401.72;;;-6.37;100.00
8069;BME280;4077;43.702;24.896;2023-02-11T01:37:42;101401.81;;;-6.28;100.00
8069;BME280;4077;43.702;24.896;2023-02-11T01:40:13;101380.16;;;-6.35;100.00
8069;BME280;4077;43.702;24.896;2023-02-11T01:42:39;101394.34;;;-6.36;100.00
8069;BME280;4077;43.702;24.896;2023-02-11T01:48:04;101390.28;;;-6.42;100.00
8069;BME280;4077;43.702;24.896;2023-02-11T01:50:29;101394.78;;;-6.47;100.00
8069;BME280;4077;43.702;24.896;2023-02-11T01:52:55;101384.06;;;-6.53;100.00
8069;BME280;4077;43.702;24.896;2023-02-11T01:55:41;101385.06;;;-6.67;100.00
8069;BME280;4077;43.702;24.896;2023-02-11T01:58:25;101392.13;;;-6.48;100.00
8069;BME280;4077;43.702;24.896;2023-02-11T02:00:52;101396.81;;;-6.51;100.00
8069;BME280;4077;43.702;24.896;2023-02-11T02:03:20;101385.63;;;-6.46;100.00
8069;BME280;4077;43.702;24.896;2023-02-11T02:05:54;101383.72;;;-6.33;100.00
8069;BME280;4077;43.702;24.896;2023-02-11T02:08:43;101388.69;;;-6.26;100.00
8069;BME280;4077;43.702;24.896;2023-02-11T02:11:11;101386.97;;;-6.34;100.00
8069;BME280;4077;43.702;24.896;2023-02-11T02:13:37;101372.47;;;-6.37;100.00
8069;BME280;4077;43.702;24.896;2023-02-11T02:16:05;101371.88;;;-6.34;100.00
8069;BME280;4077;43.702;24.896;2023-02-11T02:19:03;101385.84;;;-6.29;100.00
8069;BME280;4077;43.702;24.896;2023-02-11T02:28:13;101383.44;;;-6.04;100.00
8069;BME280;4077;43.702;24.896;2023-02-11T02:33:58;101390.81;;;-5.90;100.00
8069;BME280;4077;43.702;24.896;2023-02-11T02:36:37;101376.78;;;-5.88;100.00
8069;BME280;4077;43.702;24.896;2023-02-11T02:39:11;101383.59;;;-5.87;100.00
8069;BME280;4077;43.702;24.896;2023-02-11T02:41:40;101381.25;;;-5.86;100.00
8069;BME280;4077;43.702;24.896;2023-02-11T02:44:07;101384.25;;;-5.81;100.00
8069;BME280;4077;43.702;24.896;2023-02-11T02:46:34;101385.53;;;-5.85;100.00
8069;BME280;4077;43.702;24.896;2023-02-11T02:49:00;101390.41;;;-5.86;100.00
8069;BME280;4077;43.702;24.896;2023-02-11T03:05:57;101376.94;;;-5.71;100.00
8069;BME280;4077;43.702;24.896;2023-02-11T03:08:33;101379.69;;;-5.77;100.00
8069;BME280;4077;43.702;24.896;2023-02-11T03:11:04;101374.28;;;-5.72;100.00
8069;BME280;4077;43.702;24.896;2023-02-11T03:13:32;101363.16;;;-5.90;100.00
8069;BME280;4077;43.702;24.896;2023-02-11T03:16:10;101368.50;;;-5.87;100.00
8069;BME280;4077;43.702;24.896;2023-02-11T03:18:40;101379.88;;;-5.75;100.00
8069;BME280;4077;43.702;24.896;2023-02-11T03:21:07;101382.81;;;-6.11;100.00
8069;BME280;4077;43.702;24.896;2023-02-11T03:23:49;101355.69;;;-6.29;100.00
8069;BME280;4077;43.702;24.896;2023-02-11T03:26:43;101365.84;;;-6.20;100.00
8069;BME280;4077;43.702;24.896;2023-02-11T03:29:24;101379.06;;;-6.14;100.00
8069;BME280;4077;43.702;24.896;2023-02-11T03:32:04;101377.59;;;-6.12;100.00
8069;BME280;4077;43.702;24.896;2023-02-11T03:34:49;101380.03;;;-6.05;100.00
8069;BME280;4077;43.702;24.896;2023-02-11T03:37:22;101354.50;;;-6.17;100.00
8069;BME280;4077;43.702;24.896;2023-02-11T03:40:34;101376.09;;;-6.03;100.00
8069;BME280;4077;43.702;24.896;2023-02-11T03:42:48;101365.16;;;-6.03;100.00
8069;BME280;4077;43.702;24.896;2023-02-11T03:45:17;101367.66;;;-6.03;100.00
8069;BME280;4077;43.702;24.896;2023-02-11T03:47:48;101366.03;;;-6.03;100.00
8069;BME280;4077;43.702;24.896;2023-02-11T03:50:15;101369.31;;;-6.11;100.00
8069;BME280;4077;43.702;24.896;2023-02-11T03:52:42;101365.38;;;-6.09;100.00
8069;BME280;4077;43.702;24.896;2023-02-11T03:55:11;101365.25;;;-6.18;100.00
8069;BME280;4077;43.702;24.896;2023-02-11T03:57:37;101362.50;;;-6.28;100.00
8069;BME280;4077;43.702;24.896;2023-02-11T04:00:04;101356.09;;;-6.33;100.00
8069;BME280;4077;43.702;24.896;2023-02-11T04:02:32;101354.66;;;-6.31;100.00
8069;BME280;4077;43.702;24.896;2023-02-11T04:04:58;101355.03;;;-6.35;100.00
8069;BME280;4077;43.702;24.896;2023-02-11T04:07:24;101354.72;;;-6.38;100.00
8069;BME280;4077;43.702;24.896;2023-02-11T04:09:50;101357.25;;;-6.45;100.00
8069;BME280;4077;43.702;24.896;2023-02-11T04:12:15;101342.53;;;-6.42;100.00
8069;BME280;4077;43.702;24.896;2023-02-11T04:14:41;101342.53;;;-6.42;100.00
8069;BME280;4077;43.702;24.896;2023-02-11T04:17:06;101346.16;;;-6.47;100.00
8069;BME280;4077;43.702;24.896;2023-02-11T04:19:32;101339.22;;;-6.50;100.00
8069;BME280;4077;43.702;24.896;2023-02-11T04:21:57;101339.75;;;-6.52;100.00
8069;BME280;4077;43.702;24.896;2023-02-11T04:24:23;101342.69;;;-6.41;100.00
8069;BME280;4077;43.702;24.896;2023-02-11T04:26:49;101335.97;;;-6.49;100.00
8069;BME280;4077;43.702;24.896;2023-02-11T04:29:14;101330.13;;;-6.56;100.00
8069;BME280;4077;43.702;24.896;2023-02-11T04:31:40;101331.75;;;-6.57;100.00
8069;BME280;4077;43.702;24.896;2023-02-11T04:34:05;101314.00;;;-6.58;100.00
8069;BME280;4077;43.702;24.896;2023-02-11T04:36:31;101323.09;;;-6.36;100.00
8069;BME280;4077;43.702;24.896;2023-02-11T04:38:56;101323.09;;;-6.36;100.00
8069;BME280;4077;43.702;24.896;2023-02-11T04:41:21;101308.09;;;-6.43;100.00
8069;BME280;4077;43.702;24.896;2023-02-11T04:43:47;101315.06;;;-6.56;100.00
8069;BME280;4077;43.702;24.896;2023-02-11T04:46:12;101290.81;;;-6.72;100.00
8069;BME280;4077;43.702;24.896;2023-02-11T04:48:38;101327.09;;;-6.61;100.00
8069;BME280;4077;43.702;24.896;2023-02-11T04:51:03;101327.25;;;-6.59;100.00
8069;BME280;4077;43.702;24.896;2023-02-11T04:53:29;101316.91;;;-6.63;100.00
8069;BME280;4077;43.702;24.896;2023-02-11T04:55:54;101314.75;;;-6.67;100.00
8069;BME280;4077;43.702;24.896;2023-02-11T04:58:20;101327.59;;;-6.56;100.00
8069;BME280;4077;43.702;24.896;2023-02-11T05:00:45;101327.84;;;-6.46;100.00
8069;BME280;4077;43.702;24.896;2023-02-11T05:03:11;101334.50;;;-6.47;100.00
8069;BME280;4077;43.702;24.896;2023-02-11T05:05:38;101331.38;;;-6.37;100.00
8069;BME280;4077;43.702;24.896;2023-02-11T05:08:05;101330.13;;;-6.41;100.00
8069;BME280;4077;43.702;24.896;2023-02-11T05:10:31;101315.22;;;-6.39;100.00
8069;BME280;4077;43.702;24.896;2023-02-11T05:12:56;101331.53;;;-6.20;100.00
8069;BME280;4077;43.702;24.896;2023-02-11T05:15:22;101334.72;;;-6.14;100.00
8069;BME280;4077;43.702;24.896;2023-02-11T05:17:47;101331.31;;;-6.30;100.00
8069;BME280;4077;43.702;24.896;2023-02-11T05:20:13;101333.00;;;-6.22;100.00
8069;BME280;4077;43.702;24.896;2023-02-11T05:22:38;101329.09;;;-6.27;100.00
8069;BME280;4077;43.702;24.896;2023-02-11T05:25:04;101335.59;;;-6.29;100.00
8069;BME280;4077;43.702;24.896;2023-02-11T05:27:30;101327.00;;;-6.31;100.00
8069;BME280;4077;43.702;24.896;2023-02-11T05:29:55;101322.75;;;-6.39;100.00
8069;BME280;4077;43.702;24.896;2023-02-11T05:32:21;101329.63;;;-6.45;100.00
8069;BME280;4077;43.702;24.896;2023-02-11T05:34:46;101332.81;;;-6.39;100.00
8069;BME280;4077;43.702;24.896;2023-02-11T05:37:12;101335.50;;;-6.38;100.00
8069;BME280;4077;43.702;24.896;2023-02-11T05:39:37;101335.59;;;-6.45;100.00
8069;BME280;4077;43.702;24.896;2023-02-11T05:42:03;101332.50;;;-6.42;100.00
8069;BME280;4077;43.702;24.896;2023-02-11T05:44:28;101331.44;;;-6.44;100.00
8069;BME280;4077;43.702;24.896;2023-02-11T05:46:54;101340.69;;;-6.36;100.00
8069;BME280;4077;43.702;24.896;2023-02-11T05:49:19;101346.44;;;-6.37;100.00
8069;BME280;4077;43.702;24.896;2023-02-11T05:51:45;101349.34;;;-6.41;100.00
8069;BME280;4077;43.702;24.896;2023-02-11T05:54:10;101346.09;;;-6.40;100.00
8069;BME280;4077;43.702;24.896;2023-02-11T05:56:36;101352.00;;;-6.40;100.00
8069;BME280;4077;43.702;24.896;2023-02-11T05:59:01;101355.75;;;-6.36;100.00
8069;BME280;4077;43.702;24.896;2023-02-11T06:01:27;101355.19;;;-6.34;100.00
8069;BME280;4077;43.702;24.896;2023-02-11T06:03:52;101357.16;;;-6.31;100.00
8069;BME280;4077;43.702;24.896;2023-02-11T06:06:18;101360.00;;;-6.28;100.00
8069;BME280;4077;43.702;24.896;2023-02-11T06:08:43;101354.97;;;-6.28;100.00
8069;BME280;4077;43.702;24.896;2023-02-11T06:11:09;101359.03;;;-6.21;100.00
8069;BME280;4077;43.702;24.896;2023-02-11T06:13:35;101346.31;;;-6.23;100.00
8069;BME280;4077;43.702;24.896;2023-02-11T06:16:01;101351.09;;;-6.17;100.00
8069;BME280;4077;43.702;24.896;2023-02-11T06:18:27;101348.25;;;-6.04;100.00
8069;BME280;4077;43.702;24.896;2023-02-11T06:20:53;101355.41;;;-6.00;100.00
8069;BME280;4077;43.702;24.896;2023-02-11T06:23:19;101351.19;;;-6.09;100.00
8069;BME280;4077;43.702;24.896;2023-02-11T06:25:44;101352.97;;;-6.08;100.00
8069;BME280;4077;43.702;24.896;2023-02-11T06:28:10;101357.69;;;-6.11;100.00
8069;BME280;4077;43.702;24.896;2023-02-11T06:30:36;101358.41;;;-5.96;100.00
8069;BME280;4077;43.702;24.896;2023-02-11T06:33:02;101350.91;;;-5.71;100.00
8069;BME280;4077;43.702;24.896;2023-02-11T06:35:27;101359.06;;;-5.50;100.00
8069;BME280;4077;43.702;24.896;2023-02-11T06:37:52;101354.75;;;-5.35;100.00
8069;BME280;4077;43.702;24.896;2023-02-11T06:40:19;101361.00;;;-5.31;100.00
8069;BME280;4077;43.702;24.896;2023-02-11T06:42:46;101360.91;;;-5.24;100.00
8069;BME280;4077;43.702;24.896;2023-02-11T06:45:11;101355.13;;;-5.23;100.00
8069;BME280;4077;43.702;24.896;2023-02-11T06:47:38;101354.03;;;-5.09;100.00
8069;BME280;4077;43.702;24.896;2023-02-11T06:50:06;101357.97;;;-4.96;100.00
8069;BME280;4077;43.702;24.896;2023-02-11T06:52:32;101360.13;;;-4.83;100.00
8069;BME280;4077;43.702;24.896;2023-02-11T06:54:58;101359.13;;;-4.76;100.00
8069;BME280;4077;43.702;24.896;2023-02-11T06:57:23;101360.47;;;-4.71;100.00
8069;BME280;4077;43.702;24.896;2023-02-11T06:59:49;101363.19;;;-4.61;100.00
8069;BME280;4077;43.702;24.896;2023-02-11T07:02:14;101358.50;;;-4.49;100.00
8069;BME280;4077;43.702;24.896;2023-02-11T07:04:40;101355.56;;;-4.45;100.00
8069;BME280;4077;43.702;24.896;2023-02-11T07:07:05;101357.09;;;-4.30;100.00
8069;BME280;4077;43.702;24.896;2023-02-11T07:09:31;101360.53;;;-4.12;100.00
8069;BME280;4077;43.702;24.896;2023-02-11T07:11:56;101353.31;;;-3.92;100.00
8069;BME280;4077;43.702;24.896;2023-02-11T07:14:22;101347.41;;;-3.66;100.00
8069;BME280;4077;43.702;24.896;2023-02-11T07:16:47;101365.69;;;-1.81;100.00
8069;BME280;4077;43.702;24.896;2023-02-11T07:19:13;101376.84;;;1.85;100.00
8069;BME280;4077;43.702;24.896;2023-02-11T07:21:38;101416.09;;;5.39;78.92
8069;BME280;4077;43.702;24.896;2023-02-11T07:24:08;101438.03;;;7.20;56.26
8069;BME280;4077;43.702;24.896;2023-02-11T07:26:33;101447.50;;;8.46;47.50
8069;BME280;4077;43.702;24.896;2023-02-11T07:28:59;101457.44;;;8.57;45.45
8069;BME280;4077;43.702;24.896;2023-02-11T07:31:26;101449.63;;;8.06;43.06
8069;BME280;4077;43.702;24.896;2023-02-11T07:33:54;101455.03;;;9.65;43.39
8069;BME280;4077;43.702;24.896;2023-02-11T07:36:20;101459.84;;;10.14;38.92
8069;BME280;4077;43.702;24.896;2023-02-11T07:38:46;101454.16;;;8.43;40.45
8069;BME280;4077;43.702;24.896;2023-02-11T07:41:15;101430.00;;;6.40;43.41
8069;BME280;4077;43.702;24.896;2023-02-11T07:43:41;101430.63;;;6.50;44.09
8069;BME280;4077;43.702;24.896;2023-02-11T07:46:26;101421.91;;;5.36;46.20
8069;BME280;4077;43.702;24.896;2023-02-11T07:48:52;101416.19;;;4.74;47.85
8069;BME280;4077;43.702;24.896;2023-02-11T07:51:19;101413.66;;;4.87;47.95
8069;BME280;4077;43.702;24.896;2023-02-11T07:53:45;101413.22;;;5.08;46.69
8069;BME280;4077;43.702;24.896;2023-02-11T07:56:12;101409.59;;;5.17;47.41
8069;BME280;4077;43.702;24.896;2023-02-11T07:58:39;101412.94;;;5.84;46.94
8069;BME280;4077;43.702;24.896;2023-02-11T08:01:14;101402.88;;;6.73;46.34
8069;BME280;4077;43.702;24.896;2023-02-11T08:03:41;101403.84;;;6.17;45.79
8069;BME280;4077;43.702;24.896;2023-02-11T08:06:10;101400.28;;;5.59;45.99
8069;BME280;4077;43.702;24.896;2023-02-11T08:08:35;101405.84;;;5.80;47.35
8069;BME280;4077;43.702;24.896;2023-02-11T08:11:21;101407.69;;;5.55;46.53
8069;BME280;4077;43.702;24.896;2023-02-11T08:13:47;101394.47;;;4.43;48.64
8069;BME280;4077;43.702;24.896;2023-02-11T08:16:39;101378.81;;;3.15;50.90
8069;BME280;4077;43.702;24.896;2023-02-11T08:19:09;101371.19;;;3.03;52.84
8069;BME280;4077;43.702;24.896;2023-02-11T08:21:34;101369.50;;;2.80;53.26
8069;BME280;4077;43.702;24.896;2023-02-11T08:24:01;101369.50;;;2.57;53.67
8069;BME280;4077;43.702;24.896;2023-02-11T08:26:28;101369.13;;;2.29;54.57
8069;BME280;4077;43.702;24.896;2023-02-11T08:28:57;101359.56;;;2.14;55.66
8069;BME280;4077;43.702;24.896;2023-02-11T08:31:25;101370.38;;;2.34;54.46
8069;BME280;4077;43.702;24.896;2023-02-11T08:33:52;101359.41;;;2.35;56.15
8069;BME280;4077;43.702;24.896;2023-02-11T08:36:21;101354.75;;;2.41;56.06
8069;BME280;4077;43.702;24.896;2023-02-11T08:38:47;101359.53;;;2.48;56.65
8069;BME280;4077;43.702;24.896;2023-02-11T08:41:13;101351.97;;;2.38;55.15
8069;BME280;4077;43.702;24.896;2023-02-11T08:43:39;101355.44;;;2.73;55.35
8069;BME280;4077;43.702;24.896;2023-02-11T08:46:12;101363.53;;;2.80;56.13
8069;BME280;4077;43.702;24.896;2023-02-11T08:48:37;101363.09;;;2.97;54.37
8069;BME280;4077;43.702;24.896;2023-02-11T08:51:08;101362.75;;;2.92;53.05
8069;BME280;4077;43.702;24.896;2023-02-11T08:53:34;101369.06;;;2.62;52.87
8069;BME280;4077;43.702;24.896;2023-02-11T08:56:00;101359.22;;;2.55;54.25
8069;BME280;4077;43.702;24.896;2023-02-11T08:58:25;101362.66;;;2.79;53.91
8069;BME280;4077;43.702;24.896;2023-02-11T09:00:51;101360.41;;;2.60;54.31
8069;BME280;4077;43.702;24.896;2023-02-11T09:03:16;101356.66;;;2.55;54.28
8069;BME280;4077;43.702;24.896;2023-02-11T09:05:47;101371.50;;;2.72;54.63
8069;BME280;4077;43.702;24.896;2023-02-11T09:08:14;101356.13;;;2.83;55.03
8069;BME280;4077;43.702;24.896;2023-02-11T09:10:40;101360.66;;;3.10;53.66
8069;BME280;4077;43.702;24.896;2023-02-11T09:13:06;101348.91;;;2.89;53.15
8069;BME280;4077;43.702;24.896;2023-02-11T09:15:32;101348.00;;;3.00;53.72
8069;BME280;4077;43.702;24.896;2023-02-11T09:17:57;101349.41;;;3.08;53.70
8069;BME280;4077;43.702;24.896;2023-02-11T09:20:23;101338.38;;;2.96;53.93
8069;BME280;4077;43.702;24.896;2023-02-11T09:22:50;101343.56;;;3.09;53.56
8069;BME280;4077;43.702;24.896;2023-02-11T09:25:16;101345.34;;;2.98;55.22
8069;BME280;4077;43.702;24.896;2023-02-11T09:27:41;101344.22;;;3.18;55.20
8069;BME280;4077;43.702;24.896;2023-02-11T09:30:07;101341.13;;;2.99;56.12
8069;BME280;4077;43.702;24.896;2023-02-11T09:32:33;101333.38;;;2.74;56.92
8069;BME280;4077;43.702;24.896;2023-02-11T09:34:58;101327.81;;;2.80;56.61
8069;BME280;4077;43.702;24.896;2023-02-11T09:37:24;101316.81;;;3.52;56.86
8069;BME280;4077;43.702;24.896;2023-02-11T09:39:49;101307.75;;;3.69;55.99
8069;BME280;4077;43.702;24.896;2023-02-11T09:44:59;101318.22;;;5.86;52.13
8069;BME280;4077;43.702;24.896;2023-02-11T09:50:15;101323.00;;;6.83;49.93
8069;BME280;4077;43.702;24.896;2023-02-11T09:55:41;101287.66;;;4.12;49.65
8069;BME280;4077;43.702;24.896;2023-02-11T09:58:28;101258.72;;;3.37;50.57
8069;BME280;4077;43.702;24.896;2023-02-11T10:06:12;101270.84;;;2.91;51.91
8069;BME280;4077;43.702;24.896;2023-02-11T10:22:12;101236.19;;;2.46;51.92
8069;BME280;4077;43.702;24.896;2023-02-11T10:24:41;101231.19;;;2.59;52.19
8069;BME280;4077;43.702;24.896;2023-02-11T10:27:19;101238.56;;;2.80;52.85
8069;BME280;4077;43.702;24.896;2023-02-11T10:29:59;101223.84;;;2.76;51.62
8069;BME280;4077;43.702;24.896;2023-02-11T10:32:43;101221.41;;;2.65;53.00
8069;BME280;4077;43.702;24.896;2023-02-11T10:35:16;101208.22;;;2.71;53.57
8069;BME280;4077;43.702;24.896;2023-02-11T10:37:43;101222.97;;;2.63;52.50
8069;BME280;4077;43.702;24.896;2023-02-11T10:40:23;101200.81;;;2.62;53.02
8069;BME280;4077;43.702;24.896;2023-02-11T10:42:54;101207.25;;;2.57;53.73
8069;BME280;4077;43.702;24.896;2023-02-11T10:45:29;101203.47;;;2.64;55.01
8069;BME280;4077;43.702;24.896;2023-02-11T10:47:56;101197.59;;;2.65;54.97
8069;BME280;4077;43.702;24.896;2023-02-11T10:50:27;101190.41;;;2.59;54.85
8069;BME280;4077;43.702;24.896;2023-02-11T10:53:11;101184.41;;;2.59;56.00
8069;BME280;4077;43.702;24.896;2023-02-11T10:55:37;101181.75;;;2.57;55.96
8069;BME280;4077;43.702;24.896;2023-02-11T10:58:03;101179.56;;;2.50;56.17
8069;BME280;4077;43.702;24.896;2023-02-11T11:03:02;101170.88;;;2.60;54.07
8069;BME280;4077;43.702;24.896;2023-02-11T11:05:33;101155.56;;;2.71;54.63
8069;BME280;4077;43.702;24.896;2023-02-11T11:08:02;101173.50;;;2.85;53.55
8069;BME280;4077;43.702;24.896;2023-02-11T11:10:40;101167.13;;;3.03;53.71
8069;BME280;4077;43.702;24.896;2023-02-11T11:13:34;101151.72;;;3.15;54.36
8069;BME280;4077;43.702;24.896;2023-02-11T11:16:07;101149.03;;;3.00;54.38
8069;BME280;4077;43.702;24.896;2023-02-11T11:18:33;101154.41;;;3.16;54.96
8069;BME280;4077;43.702;24.896;2023-02-11T11:21:01;101148.09;;;3.11;54.71
8069;BME280;4077;43.702;24.896;2023-02-11T11:23:29;101137.75;;;2.96;54.95
8069;BME280;4077;43.702;24.896;2023-02-11T11:26:10;101134.31;;;2.96;55.88
8069;BME280;4077;43.702;24.896;2023-02-11T11:28:42;101137.75;;;2.96;55.23
8069;BME280;4077;43.702;24.896;2023-02-11T11:31:18;101126.69;;;2.84;55.20
8069;BME280;4077;43.702;24.896;2023-02-11T11:33:45;101127.38;;;2.82;56.63
8069;BME280;4077;43.702;24.896;2023-02-11T11:36:14;101112.03;;;2.68;55.07
8069;BME280;4077;43.702;24.896;2023-02-11T11:39:02;101117.75;;;2.78;55.88
8069;BME280;4077;43.702;24.896;2023-02-11T11:41:32;101111.59;;;2.62;55.38
8069;BME280;4077;43.702;24.896;2023-02-11T11:46:50;101097.19;;;2.63;54.81
8069;BME280;4077;43.702;24.896;2023-02-11T11:49:31;101093.09;;;2.53;56.10
8069;BME280;4077;43.702;24.896;2023-02-11T11:52:13;101082.09;;;2.41;55.15
8069;BME280;4077;43.702;24.896;2023-02-11T11:54:42;101065.91;;;2.40;55.72
8069;BME280;4077;43.702;24.896;2023-02-11T11:57:17;101070.94;;;2.52;55.65
8069;BME280;4077;43.702;24.896;2023-02-11T11:59:43;101071.19;;;2.55;56.17
8069;BME280;4077;43.702;24.896;2023-02-11T12:05:31;101064.78;;;2.49;57.07
8069;BME280;4077;43.702;24.896;2023-02-11T12:08:24;101063.56;;;2.43;57.70
8069;BME280;4077;43.702;24.896;2023-02-11T12:21:37;101048.09;;;2.54;57.07
8069;BME280;4077;43.702;24.896;2023-02-11T12:24:32;101042.78;;;2.62;55.39
8069;BME280;4077;43.702;24.896;2023-02-11T12:27:21;101027.28;;;2.23;55.65
8069;BME280;4077;43.702;24.896;2023-02-11T12:29:59;101035.78;;;2.35;55.39
8069;BME280;4077;43.702;24.896;2023-02-11T12:54:45;100989.28;;;2.26;56.50
8069;BME280;4077;43.702;24.896;2023-02-11T12:57:25;101001.66;;;2.33;56.18
8069;BME280;4077;43.702;24.896;2023-02-11T13:05:22;101001.25;;;2.27;56.14
8069;BME280;4077;43.702;24.896;2023-02-11T13:07:50;100983.56;;;2.16;55.97
8069;BME280;4077;43.702;24.896;2023-02-11T13:12:51;100980.47;;;2.21;55.56
8069;BME280;4077;43.702;24.896;2023-02-11T13:15:36;100982.69;;;2.16;55.19
8069;BME280;4077;43.702;24.896;2023-02-11T13:18:26;100963.38;;;2.19;54.41
8069;BME280;4077;43.702;24.896;2023-02-11T13:32:09;100964.38;;;2.22;55.35
8069;BME280;4077;43.702;24.896;2023-02-11T13:37:37;100970.47;;;2.24;55.07
8069;BME280;4077;43.702;24.896;2023-02-11T13:40:21;100958.78;;;2.14;55.50
8069;BME280;4077;43.702;24.896;2023-02-11T13:42:55;100960.22;;;2.10;55.67
8069;BME280;4077;43.702;24.896;2023-02-11T13:48:02;100952.00;;;2.14;55.76
8069;BME280;4077;43.702;24.896;2023-02-11T13:50:31;100961.41;;;2.15;55.82
8069;BME280;4077;43.702;24.896;2023-02-11T13:53:01;100956.75;;;2.22;55.31
8069;BME280;4077;43.702;24.896;2023-02-11T13:55:28;100947.72;;;2.13;55.71
8069;BME280;4077;43.702;24.896;2023-02-11T14:00:45;100924.22;;;2.06;57.05
8069;BME280;4077;43.702;24.896;2023-02-11T14:11:45;100938.31;;;2.26;58.30
8069;BME280;4077;43.702;24.896;2023-02-11T14:19:36;100925.53;;;2.12;58.37
8069;BME280;4077;43.702;24.896;2023-02-11T14:22:13;100920.84;;;2.18;58.54
8069;BME280;4077;43.702;24.896;2023-02-11T14:27:26;100923.13;;;2.14;59.11
8069;BME280;4077;43.702;24.896;2023-02-11T14:30:08;100918.25;;;2.05;59.41
8069;BME280;4077;43.702;24.896;2023-02-11T14:35:33;100908.84;;;2.04;59.96
8069;BME280;4077;43.702;24.896;2023-02-11T14:40:34;100897.28;;;1.96;60.47
8069;BME280;4077;43.702;24.896;2023-02-11T14:43:34;100895.94;;;2.01;60.81
8069;BME280;4077;43.702;24.896;2023-02-11T14:46:01;100900.09;;;1.87;61.10
8069;BME280;4077;43.702;24.896;2023-02-11T14:48:29;100897.81;;;1.92;61.14
8069;BME280;4077;43.702;24.896;2023-02-11T14:51:12;100896.84;;;1.90;60.79
8069;BME280;4077;43.702;24.896;2023-02-11T14:53:42;100876.31;;;1.75;60.75
8069;BME280;4077;43.702;24.896;2023-02-11T14:56:26;100881.75;;;1.80;60.55
8069;BME280;4077;43.702;24.896;2023-02-11T14:58:53;100891.41;;;1.72;60.89
8069;BME280;4077;43.702;24.896;2023-02-11T15:01:33;100884.50;;;1.71;61.63
8069;BME280;4077;43.702;24.896;2023-02-11T15:04:04;100890.50;;;1.72;61.97
8069;BME280;4077;43.702;24.896;2023-02-11T15:06:32;100875.44;;;1.75;61.89
8069;BME280;4077;43.702;24.896;2023-02-11T15:08:59;100874.66;;;1.76;62.18
8069;BME280;4077;43.702;24.896;2023-02-11T15:11:30;100866.13;;;1.75;63.33
8069;BME280;4077;43.702;24.896;2023-02-11T15:14:00;100861.94;;;1.76;63.11
8069;BME280;4077;43.702;24.896;2023-02-11T15:16:40;100855.28;;;1.78;63.70
8069;BME280;4077;43.702;24.896;2023-02-11T15:21:46;100855.34;;;1.66;64.23
8069;BME280;4077;43.702;24.896;2023-02-11T15:29:48;100848.09;;;1.47;65.44
8069;BME280;4077;43.702;24.896;2023-02-11T15:32:16;100858.25;;;1.47;66.84
8069;BME280;4077;43.702;24.896;2023-02-11T15:34:44;100858.06;;;1.44;67.96
8069;BME280;4077;43.702;24.896;2023-02-11T15:39:45;100849.69;;;1.22;73.42
8069;BME280;4077;43.702;24.896;2023-02-11T15:42:25;100848.81;;;1.21;76.57
8069;BME280;4077;43.702;24.896;2023-02-11T15:45:21;100838.66;;;1.09;79.06
8069;BME280;4077;43.702;24.896;2023-02-11T15:48:37;100837.66;;;1.07;82.22